createdAt,value
2023-02-16T00:00:07.361Z,75.50
2023-02-16T00:02:10.576Z,71.43
2023-02-16T00:04:23.585Z,74.15
2023-02-16T00:06:25.716Z,63.70
2023-02-16T00:08:27.317Z,68.30
2023-02-16T00:10:36.372Z,67.30
2023-02-16T00:12:56.163Z,73.07
2023-02-16T00:14:58.328Z,49.70
2023-02-16T00:17:00.219Z,72.47
2023-02-16T00:19:02.266Z,58.65
2023-02-16T00:21:04.165Z,71.90
2023-02-16T00:23:05.859Z,69.03
2023-02-16T00:25:08.260Z,74.55
2023-02-16T00:27:15.357Z,71.28
2023-02-16T00:29:31.226Z,68.80
2023-02-16T00:31:33.084Z,58.15
2023-02-16T00:33:34.617Z,69.95
2023-02-16T00:35:36.127Z,71.03
2023-02-16T00:37:37.618Z,62.97
2023-02-16T00:39:40.818Z,75.10
2023-02-16T00:41:51.584Z,72.28
2023-02-16T00:43:54.932Z,75.50
2023-02-16T00:45:57.312Z,71.65
2023-02-16T00:47:58.863Z,70.18
2023-02-16T00:50:00.403Z,72.60
2023-02-16T00:52:22.083Z,65.55
2023-02-16T00:54:23.667Z,77.60
2023-02-16T00:56:25.180Z,78.47
2023-02-16T00:58:30.615Z,76.82
2023-02-16T01:00:36.272Z,67.78
2023-02-16T01:02:37.899Z,73.88
2023-02-16T01:04:39.610Z,73.18
2023-02-16T01:06:59.843Z,77.47
2023-02-16T01:09:31.362Z,78.05
2023-02-16T01:11:32.868Z,71.78
2023-02-16T01:13:46.121Z,71.85
2023-02-16T01:15:47.675Z,69.00
2023-02-16T01:17:49.221Z,71.55
2023-02-16T01:19:50.817Z,69.57
2023-02-16T01:21:52.316Z,72.78
2023-02-16T01:23:53.821Z,69.53
2023-02-16T01:25:56.901Z,68.75
2023-02-16T01:27:59.082Z,66.75
2023-02-16T01:30:00.759Z,74.00
2023-02-16T01:32:02.385Z,67.78
2023-02-16T01:34:03.987Z,72.72
2023-02-16T01:36:18.772Z,61.92
2023-02-16T01:38:26.512Z,61.40
2023-02-16T01:40:34.244Z,65.00
2023-02-16T01:43:04.732Z,59.22
2023-02-16T01:45:33.951Z,60.88
2023-02-16T01:47:53.083Z,63.88
2023-02-16T01:49:54.682Z,66.15
2023-02-16T01:52:14.192Z,61.08
2023-02-16T01:54:28.977Z,67.10
2023-02-16T01:56:40.342Z,70.65
2023-02-16T01:58:52.406Z,71.25
2023-02-16T02:00:56.569Z,67.93
2023-02-16T02:03:21.564Z,68.55
2023-02-16T02:05:35.588Z,72.47
2023-02-16T02:07:52.097Z,78.05
2023-02-16T02:10:07.249Z,89.55
2023-02-16T02:12:32.544Z,94.45
2023-02-16T02:14:38.357Z,94.20
2023-02-16T02:16:39.858Z,99.28
2023-02-16T02:18:41.471Z,94.50
2023-02-16T02:21:20.084Z,93.45
2023-02-16T02:23:40.509Z,62.93
2023-02-16T02:25:53.949Z,81.32
2023-02-16T02:28:16.073Z,85.88
2023-02-16T02:30:35.518Z,72.45
2023-02-16T02:32:39.833Z,74.50
2023-02-16T02:35:02.867Z,68.18
2023-02-16T02:37:18.349Z,68.90
2023-02-16T02:39:27.014Z,63.47
2023-02-16T02:42:01.292Z,63.87
2023-02-16T02:44:08.861Z,59.55
2023-02-16T02:46:16.049Z,62.15
2023-02-16T02:48:17.607Z,62.95
2023-02-16T02:50:40.632Z,62.75
2023-02-16T02:52:42.171Z,66.60
2023-02-16T02:55:03.716Z,65.75
2023-02-16T02:57:42.936Z,64.75
2023-02-16T03:00:09.381Z,61.88
2023-02-16T03:02:12.298Z,66.22
2023-02-16T03:04:19.510Z,69.38
2023-02-16T03:06:30.272Z,67.38
2023-02-16T03:08:34.697Z,67.82
2023-02-16T03:10:56.449Z,71.80
2023-02-16T03:13:00.510Z,70.07
2023-02-16T03:15:02.842Z,72.90
2023-02-16T03:17:28.751Z,67.85
2023-02-16T03:19:48.905Z,65.25
2023-02-16T03:22:09.846Z,64.78
2023-02-16T03:24:35.388Z,62.10
2023-02-16T03:26:57.323Z,57.63
2023-02-16T03:29:20.531Z,54.25
2023-02-16T03:31:25.411Z,54.65
2023-02-16T03:33:27.905Z,71.30
2023-02-16T03:35:29.537Z,66.10
2023-02-16T03:37:31.886Z,66.03
2023-02-16T03:39:53.503Z,65.15
2023-02-16T03:41:56.546Z,61.30
2023-02-16T03:43:58.198Z,57.47
2023-02-16T03:45:59.937Z,56.80
2023-02-16T03:48:02.023Z,58.40
2023-02-16T03:50:03.728Z,84.22
2023-02-16T03:52:05.465Z,79.60
2023-02-16T03:54:07.037Z,53.55
2023-02-16T03:56:08.561Z,49.70
2023-02-16T03:58:13.043Z,50.97
2023-02-16T04:00:14.870Z,52.15
2023-02-16T04:02:16.518Z,50.15
2023-02-16T04:04:18.089Z,60.40
2023-02-16T04:06:19.708Z,67.30
2023-02-16T04:08:21.250Z,67.85
2023-02-16T04:10:23.042Z,60.85
2023-02-16T04:12:36.620Z,60.70
2023-02-16T04:14:38.122Z,58.03
2023-02-16T04:16:39.835Z,60.70
2023-02-16T04:18:41.381Z,58.92
2023-02-16T04:20:43.001Z,61.95
2023-02-16T04:22:45.187Z,71.63
2023-02-16T04:24:46.717Z,75.60
2023-02-16T04:26:49.533Z,73.30
2023-02-16T04:28:51.161Z,63.25
2023-02-16T04:30:52.782Z,57.60
2023-02-16T04:32:54.503Z,56.75
2023-02-16T04:34:56.018Z,60.47
2023-02-16T04:36:57.550Z,59.15
2023-02-16T04:38:59.181Z,60.22
2023-02-16T04:41:00.720Z,69.50
2023-02-16T04:43:02.239Z,77.57
2023-02-16T04:45:03.987Z,63.28
2023-02-16T04:47:05.750Z,64.13
2023-02-16T04:49:07.356Z,59.90
2023-02-16T04:51:08.840Z,58.00
2023-02-16T04:53:10.346Z,61.83
2023-02-16T04:55:11.876Z,78.35
2023-02-16T04:57:13.392Z,96.45
2023-02-16T04:59:15.868Z,93.47
2023-02-16T05:01:23.977Z,88.05
2023-02-16T05:03:25.513Z,69.65
2023-02-16T05:05:27.129Z,74.43
2023-02-16T05:07:28.634Z,69.78
2023-02-16T05:09:30.158Z,72.10
2023-02-16T05:11:50.506Z,67.45
2023-02-16T05:14:10.442Z,66.70
2023-02-16T05:16:12.032Z,68.15
2023-02-16T05:18:13.822Z,63.60
2023-02-16T05:20:15.450Z,62.95
2023-02-16T05:22:17.288Z,69.63
2023-02-16T05:24:18.822Z,69.25
2023-02-16T05:26:20.344Z,64.43
2023-02-16T05:28:21.911Z,72.60
2023-02-16T05:30:23.508Z,76.03
2023-02-16T05:32:25.381Z,65.82
2023-02-16T05:34:27.231Z,64.22
2023-02-16T05:36:28.760Z,66.18
2023-02-16T05:38:30.307Z,63.25
2023-02-16T05:40:31.886Z,63.97
2023-02-16T05:42:33.498Z,68.25
2023-02-16T05:44:35.236Z,63.13
2023-02-16T05:46:38.793Z,60.00
2023-02-16T05:48:40.341Z,60.83
2023-02-16T05:50:41.859Z,57.90
2023-02-16T05:52:43.416Z,55.50
2023-02-16T05:54:44.977Z,56.85
2023-02-16T05:56:49.902Z,57.28
2023-02-16T05:58:52.411Z,59.47
2023-02-16T06:00:54.142Z,79.65
2023-02-16T06:02:55.680Z,92.10
2023-02-16T06:04:57.282Z,110.90
2023-02-16T06:06:58.807Z,135.30
2023-02-16T06:09:01.407Z,102.78
2023-02-16T06:11:07.038Z,89.97
2023-02-16T06:13:08.655Z,100.07
2023-02-16T06:15:10.505Z,71.25
2023-02-16T06:17:12.006Z,65.72
2023-02-16T06:19:14.348Z,58.85
2023-02-16T06:21:15.845Z,56.58
2023-02-16T06:23:17.984Z,56.38
2023-02-16T06:25:20.285Z,56.33
2023-02-16T06:27:21.838Z,52.38
2023-02-16T06:29:23.369Z,60.55
2023-02-16T06:31:25.351Z,63.08
2023-02-16T06:33:26.989Z,56.53
2023-02-16T06:35:28.516Z,52.50
2023-02-16T06:37:30.373Z,46.67
2023-02-16T06:39:31.963Z,45.63
2023-02-16T06:41:40.136Z,45.53
2023-02-16T06:43:41.736Z,47.40
2023-02-16T06:45:43.246Z,47.03
2023-02-16T06:47:44.853Z,47.83
2023-02-16T06:49:46.359Z,48.03
2023-02-16T06:51:49.721Z,53.70
2023-02-16T06:53:51.524Z,49.72
2023-02-16T06:55:53.071Z,54.55
2023-02-16T06:57:54.575Z,48.53
2023-02-16T06:59:56.514Z,43.80
2023-02-16T07:01:58.025Z,44.92
2023-02-16T07:03:59.585Z,45.25
2023-02-16T07:06:01.297Z,41.17
2023-02-16T07:08:02.907Z,46.20
2023-02-16T07:10:04.766Z,52.25
2023-02-16T07:12:07.270Z,43.40
2023-02-16T07:14:08.846Z,41.55
2023-02-16T07:16:10.698Z,41.38
2023-02-16T07:18:12.660Z,41.42
2023-02-16T07:20:14.174Z,59.70
2023-02-16T07:22:16.774Z,41.33
2023-02-16T07:24:18.287Z,50.22
2023-02-16T07:26:19.942Z,41.97
2023-02-16T07:28:21.546Z,41.33
2023-02-16T07:30:23.156Z,43.05
2023-02-16T07:32:24.763Z,42.53
2023-02-16T07:34:26.370Z,37.45
2023-02-16T07:36:27.911Z,39.10
2023-02-16T07:38:30.836Z,37.72
2023-02-16T07:40:32.685Z,40.63
2023-02-16T07:42:34.332Z,41.53
2023-02-16T07:44:35.842Z,37.85
2023-02-16T07:46:37.377Z,50.30
2023-02-16T07:48:38.953Z,35.78
2023-02-16T07:50:40.464Z,35.75
2023-02-16T07:52:42.056Z,38.72
2023-02-16T07:54:43.545Z,39.47
2023-02-16T07:56:45.080Z,42.72
2023-02-16T07:58:47.422Z,41.63
2023-02-16T08:00:48.952Z,36.05
2023-02-16T08:02:50.613Z,36.35
2023-02-16T08:04:52.918Z,36.53
2023-02-16T08:06:54.504Z,38.85
2023-02-16T08:08:57.193Z,48.38
2023-02-16T08:10:58.833Z,44.38
2023-02-16T08:13:00.709Z,47.15
2023-02-16T08:15:03.046Z,52.63
2023-02-16T08:17:05.982Z,38.88
2023-02-16T08:19:09.462Z,44.17
2023-02-16T08:21:16.919Z,47.20
2023-02-16T08:23:18.415Z,41.63
2023-02-16T08:25:19.929Z,48.40
2023-02-16T08:27:21.601Z,39.25
2023-02-16T08:29:23.936Z,43.58
2023-02-16T08:31:32.597Z,45.75
2023-02-16T08:33:34.380Z,40.75
2023-02-16T08:35:38.605Z,43.50
2023-02-16T08:37:40.158Z,38.83
2023-02-16T08:39:42.231Z,37.28
2023-02-16T08:41:45.453Z,37.67
2023-02-16T08:43:48.224Z,35.42
2023-02-16T08:45:49.803Z,38.70
2023-02-16T08:47:53.292Z,40.53
2023-02-16T08:49:54.865Z,40.97
2023-02-16T08:51:58.652Z,34.08
2023-02-16T08:54:01.587Z,33.85
2023-02-16T08:56:05.106Z,34.90
2023-02-16T08:58:06.947Z,35.45
2023-02-16T09:00:27.351Z,37.13
2023-02-16T09:02:28.938Z,33.90
2023-02-16T09:04:31.913Z,39.75
2023-02-16T09:06:37.648Z,34.42
2023-02-16T09:08:40.119Z,35.35
2023-02-16T09:10:42.725Z,34.35
2023-02-16T09:12:48.528Z,34.33
2023-02-16T09:14:50.051Z,35.25
2023-02-16T09:16:51.630Z,34.95
2023-02-16T09:18:53.558Z,32.88
2023-02-16T09:20:55.110Z,35.00
2023-02-16T09:22:56.794Z,32.88
2023-02-16T09:24:58.455Z,30.05
2023-02-16T09:26:59.959Z,29.55
2023-02-16T09:29:02.212Z,28.85
2023-02-16T09:31:20.045Z,28.90
2023-02-16T09:33:21.858Z,28.23
2023-02-16T09:35:23.541Z,29.65
2023-02-16T09:37:25.044Z,26.42
2023-02-16T09:39:26.878Z,42.83
2023-02-16T09:42:00.127Z,39.15
2023-02-16T09:44:38.048Z,27.40
2023-02-16T09:46:41.641Z,45.08
2023-02-16T09:48:48.700Z,31.08
2023-02-16T09:50:54.914Z,26.70
2023-02-16T09:53:04.735Z,26.15
2023-02-16T09:55:18.084Z,23.80
2023-02-16T09:57:31.549Z,25.50
2023-02-16T09:59:48.419Z,28.63
2023-02-16T10:02:03.815Z,25.08
2023-02-16T10:04:17.940Z,24.73
2023-02-16T10:06:41.873Z,23.27
2023-02-16T10:08:48.572Z,24.35
2023-02-16T10:10:52.908Z,24.38
2023-02-16T10:13:07.585Z,22.38
2023-02-16T10:15:14.466Z,23.85
2023-02-16T10:17:28.267Z,24.45
2023-02-16T10:19:54.657Z,22.83
2023-02-16T10:22:00.843Z,22.67
2023-02-16T10:24:06.852Z,24.55
2023-02-16T10:26:22.731Z,23.38
2023-02-16T10:28:45.295Z,22.23
2023-02-16T10:30:53.728Z,22.67
2023-02-16T10:33:08.300Z,21.13
2023-02-16T10:35:17.541Z,27.15
2023-02-16T10:37:19.060Z,24.17
2023-02-16T10:40:08.746Z,24.25
2023-02-16T10:42:29.885Z,23.48
2023-02-16T10:44:37.458Z,25.08
2023-02-16T10:46:44.017Z,26.17
2023-02-16T10:48:46.592Z,25.65
2023-02-16T10:51:03.963Z,26.92
2023-02-16T10:53:19.507Z,28.02
2023-02-16T10:55:21.335Z,25.30
2023-02-16T10:57:28.872Z,24.88
2023-02-16T10:59:43.923Z,27.00
2023-02-16T11:01:57.626Z,25.90
2023-02-16T11:03:59.306Z,41.05
2023-02-16T11:06:27.120Z,26.35
2023-02-16T11:08:48.073Z,25.38
2023-02-16T11:10:52.356Z,23.83
2023-02-16T11:12:57.829Z,26.83
2023-02-16T11:14:59.316Z,30.55
2023-02-16T11:17:05.349Z,26.13
2023-02-16T11:19:17.837Z,23.30
2023-02-16T11:21:19.373Z,24.85
2023-02-16T11:23:25.717Z,32.85
2023-02-16T11:25:27.502Z,38.70
2023-02-16T11:27:29.968Z,34.83
2023-02-16T11:29:32.369Z,23.13
2023-02-16T11:31:38.117Z,23.00
2023-02-16T11:33:41.513Z,23.20
2023-02-16T11:35:44.815Z,22.17
2023-02-16T11:37:46.451Z,22.63
2023-02-16T11:39:56.220Z,23.73
2023-02-16T11:42:01.640Z,23.08
2023-02-16T11:44:03.951Z,22.23
2023-02-16T11:46:17.661Z,26.58
2023-02-16T11:48:28.525Z,26.98
2023-02-16T11:50:35.449Z,22.77
2023-02-16T11:52:37.179Z,22.05
2023-02-16T11:54:49.387Z,23.08
2023-02-16T11:57:11.049Z,27.42
2023-02-16T11:59:17.054Z,22.63
2023-02-16T12:01:40.530Z,22.02
2023-02-16T12:04:03.656Z,23.45
2023-02-16T12:06:28.613Z,22.13
2023-02-16T12:08:43.904Z,24.60
2023-02-16T12:10:51.440Z,24.80
2023-02-16T12:13:07.032Z,43.63
2023-02-16T12:15:25.046Z,30.25
2023-02-16T12:17:54.951Z,21.90
2023-02-16T12:22:08.100Z,20.52
2023-02-16T12:24:17.958Z,22.15
2023-02-16T12:28:35.664Z,36.28
2023-02-16T12:30:53.660Z,25.83
2023-02-16T12:33:08.139Z,26.58
2023-02-16T12:35:43.947Z,25.63
2023-02-16T12:38:04.213Z,23.27
2023-02-16T12:40:34.462Z,30.13
2023-02-16T12:42:35.933Z,28.52
2023-02-16T12:44:42.666Z,20.13
2023-02-16T12:46:47.787Z,19.35
2023-02-16T12:48:57.056Z,23.58
2023-02-16T12:51:02.536Z,28.92
2023-02-16T12:53:18.698Z,40.63
2023-02-16T12:55:26.955Z,30.67
2023-02-16T12:57:31.155Z,28.20
2023-02-16T12:59:41.916Z,23.30
2023-02-16T13:01:45.839Z,24.45
2023-02-16T13:03:59.268Z,54.65
2023-02-16T13:06:08.455Z,39.60
2023-02-16T13:08:24.863Z,25.73
2023-02-16T13:10:53.009Z,23.98
2023-02-16T13:13:00.856Z,18.27
2023-02-16T13:15:20.719Z,19.30
2023-02-16T13:19:31.001Z,20.60
2023-02-16T13:21:52.140Z,19.15
2023-02-16T13:23:59.837Z,30.02
2023-02-16T13:26:10.968Z,23.75
2023-02-16T13:28:37.028Z,17.27
2023-02-16T13:31:08.128Z,28.65
2023-02-16T13:33:09.642Z,19.60
2023-02-16T13:35:30.112Z,15.80
2023-02-16T13:37:50.788Z,18.08
2023-02-16T13:39:52.303Z,25.05
2023-02-16T13:42:08.645Z,31.60
2023-02-16T13:44:15.670Z,26.40
2023-02-16T13:46:31.240Z,20.90
2023-02-16T13:48:46.453Z,19.63
2023-02-16T13:50:59.802Z,21.90
2023-02-16T13:53:36.392Z,23.70
2023-02-16T13:55:40.110Z,20.20
2023-02-16T13:57:50.682Z,22.42
2023-02-16T14:00:02.079Z,25.60
2023-02-16T14:02:24.916Z,30.02
2023-02-16T14:04:27.007Z,34.25
2023-02-16T14:06:37.179Z,42.30
2023-02-16T14:08:38.855Z,37.45
2023-02-16T14:10:55.430Z,44.28
2023-02-16T14:12:57.017Z,31.90
2023-02-16T14:15:02.597Z,31.98
2023-02-16T14:17:19.524Z,38.72
2023-02-16T14:19:26.634Z,26.10
2023-02-16T14:21:40.287Z,30.88
2023-02-16T14:23:42.189Z,37.28
2023-02-16T14:25:43.930Z,65.57
2023-02-16T14:27:47.174Z,98.28
2023-02-16T14:30:00.619Z,54.78
2023-02-16T14:32:26.061Z,115.70
2023-02-16T14:34:30.799Z,62.85
2023-02-16T14:36:33.300Z,126.43
2023-02-16T14:38:37.760Z,46.33
2023-02-16T14:40:45.404Z,68.82
2023-02-16T14:42:52.587Z,60.65
2023-02-16T14:45:18.842Z,40.90
2023-02-16T14:47:42.213Z,37.85
2023-02-16T14:50:03.695Z,36.13
2023-02-16T14:52:42.858Z,51.53
2023-02-16T14:55:18.532Z,43.40
2023-02-16T14:57:43.085Z,48.55
2023-02-16T14:59:48.491Z,49.90
2023-02-16T15:01:50.569Z,44.47
2023-02-16T15:03:54.725Z,34.08
2023-02-16T15:05:59.936Z,65.55
2023-02-16T15:08:24.341Z,50.13
2023-02-16T15:10:27.602Z,44.38
2023-02-16T15:12:32.753Z,48.45
2023-02-16T15:14:45.535Z,43.03
2023-02-16T15:16:48.425Z,60.58
2023-02-16T15:18:53.163Z,48.03
2023-02-16T15:20:58.478Z,50.60
2023-02-16T15:23:03.626Z,70.13
2023-02-16T15:25:19.606Z,48.60
2023-02-16T15:27:23.672Z,65.28
2023-02-16T15:29:27.498Z,38.15
2023-02-16T15:31:35.143Z,45.00
2023-02-16T15:33:43.264Z,87.97
2023-02-16T15:35:46.868Z,67.72
2023-02-16T15:37:48.698Z,64.22
2023-02-16T15:40:08.625Z,77.80
2023-02-16T15:42:25.088Z,46.53
2023-02-16T15:44:34.667Z,42.13
2023-02-16T15:46:42.117Z,60.10
2023-02-16T15:48:43.699Z,108.47
2023-02-16T15:50:46.145Z,100.72
2023-02-16T15:52:47.923Z,99.97
2023-02-16T15:54:50.227Z,85.35
2023-02-16T15:56:53.691Z,84.68
2023-02-16T15:59:01.705Z,58.00
2023-02-16T16:01:03.726Z,71.53
2023-02-16T16:03:09.188Z,75.65
2023-02-16T16:05:22.091Z,57.20
2023-02-16T16:07:32.894Z,65.03
2023-02-16T16:09:36.197Z,86.32
2023-02-16T16:11:37.902Z,84.30
2023-02-16T16:13:39.703Z,86.32
2023-02-16T16:15:44.462Z,102.72
2023-02-16T16:17:46.761Z,103.57
2023-02-16T16:19:48.939Z,100.65
2023-02-16T16:21:55.599Z,124.70
2023-02-16T16:24:01.011Z,161.77
2023-02-16T16:26:02.912Z,171.73
2023-02-16T16:28:07.298Z,113.85
2023-02-16T16:30:30.932Z,117.00
2023-02-16T16:32:33.855Z,109.10
2023-02-16T16:34:40.456Z,68.65
2023-02-16T16:36:55.372Z,43.88
2023-02-16T16:39:18.538Z,38.15
2023-02-16T16:41:29.377Z,43.00
2023-02-16T16:43:41.478Z,57.08
2023-02-16T16:45:48.563Z,50.13
2023-02-16T16:47:52.197Z,33.28
2023-02-16T16:50:05.111Z,39.50
2023-02-16T16:52:10.854Z,53.22
2023-02-16T16:54:35.655Z,88.13
2023-02-16T16:56:39.705Z,74.22
2023-02-16T16:58:41.744Z,68.07
2023-02-16T17:00:43.434Z,77.63
2023-02-16T17:02:45.643Z,73.50
2023-02-16T17:04:47.143Z,101.65
2023-02-16T17:06:48.729Z,75.88
2023-02-16T17:08:50.708Z,48.28
2023-02-16T17:10:52.342Z,35.45
2023-02-16T17:12:57.150Z,45.28
2023-02-16T17:15:00.946Z,59.05
2023-02-16T17:17:02.489Z,70.30
2023-02-16T17:19:04.508Z,89.28
2023-02-16T17:21:06.350Z,101.20
2023-02-16T17:23:10.528Z,109.43
2023-02-16T17:25:12.635Z,115.63
2023-02-16T17:27:14.440Z,84.78
2023-02-16T17:29:16.408Z,69.85
2023-02-16T17:31:18.098Z,65.30
2023-02-16T17:33:20.183Z,69.35
2023-02-16T17:35:21.935Z,79.50
2023-02-16T17:37:27.646Z,97.22
2023-02-16T17:39:30.268Z,93.22
2023-02-16T17:41:31.813Z,106.25
2023-02-16T17:43:33.524Z,98.72
2023-02-16T17:45:35.290Z,86.03
2023-02-16T17:47:37.356Z,93.68
2023-02-16T17:49:39.242Z,84.55
2023-02-16T17:51:41.270Z,94.13
2023-02-16T17:53:42.832Z,102.40
2023-02-16T17:55:46.840Z,102.40
2023-02-16T17:57:48.610Z,96.50
2023-02-16T17:59:50.544Z,72.70
2023-02-16T18:01:52.328Z,75.40
2023-02-16T18:03:53.875Z,84.93
2023-02-16T18:05:55.663Z,79.22
2023-02-16T18:07:57.675Z,60.40
2023-02-16T18:09:59.292Z,56.80
2023-02-16T18:12:01.039Z,72.25
2023-02-16T18:14:02.806Z,77.10
2023-02-16T18:16:07.410Z,86.32
2023-02-16T18:18:09.489Z,93.20
2023-02-16T18:20:14.914Z,82.45
2023-02-16T18:22:16.646Z,72.53
2023-02-16T18:24:18.250Z,63.75
2023-02-16T18:26:19.985Z,58.10
2023-02-16T18:28:28.491Z,60.28
2023-02-16T18:30:30.237Z,64.40
2023-02-16T18:32:39.669Z,69.22
2023-02-16T18:34:41.292Z,61.05
2023-02-16T18:36:43.438Z,64.00
2023-02-16T18:38:44.937Z,65.90
2023-02-16T18:40:47.033Z,63.85
2023-02-16T18:42:48.796Z,60.50
2023-02-16T18:44:50.894Z,63.95
2023-02-16T18:46:52.580Z,56.88
2023-02-16T18:48:54.110Z,59.78
2023-02-16T18:50:55.863Z,64.72
2023-02-16T18:52:57.675Z,66.15
2023-02-16T18:54:59.346Z,68.63
2023-02-16T18:57:01.190Z,76.25
2023-02-16T18:59:02.770Z,72.65
2023-02-16T19:01:14.906Z,69.25
2023-02-16T19:03:16.625Z,64.05
2023-02-16T19:05:18.355Z,62.17
2023-02-16T19:07:19.898Z,60.88
2023-02-16T19:09:21.903Z,63.13
2023-02-16T19:11:23.439Z,64.35
2023-02-16T19:13:24.935Z,65.15
2023-02-16T19:15:26.542Z,73.78
2023-02-16T19:17:28.120Z,73.00
2023-02-16T19:19:30.989Z,71.22
2023-02-16T19:21:33.030Z,75.55
2023-02-16T19:23:34.998Z,76.55
2023-02-16T19:25:36.626Z,70.43
2023-02-16T19:27:38.377Z,64.97
2023-02-16T19:29:40.702Z,63.38
2023-02-16T19:31:42.654Z,64.68
2023-02-16T19:33:44.654Z,57.67
2023-02-16T19:35:46.170Z,68.20
2023-02-16T19:37:47.677Z,101.65
2023-02-16T19:39:49.362Z,89.28
2023-02-16T19:41:51.131Z,75.72
2023-02-16T19:43:52.791Z,72.68
2023-02-16T19:45:54.413Z,73.22
2023-02-16T19:47:55.921Z,79.72
2023-02-16T19:49:57.915Z,90.20
2023-02-16T19:52:02.525Z,88.90
2023-02-16T19:54:04.156Z,84.32
2023-02-16T19:56:13.016Z,102.38
2023-02-16T19:58:14.772Z,76.28
2023-02-16T20:00:16.537Z,66.00
2023-02-16T20:02:18.392Z,65.82
2023-02-16T20:04:20.148Z,65.63
2023-02-16T20:06:27.532Z,58.90
2023-02-16T20:08:29.137Z,93.38
2023-02-16T20:10:32.840Z,114.95
2023-02-16T20:12:34.549Z,123.28
2023-02-16T20:14:37.004Z,105.07
2023-02-16T20:16:39.781Z,110.32
2023-02-16T20:18:41.958Z,110.57
2023-02-16T20:20:43.628Z,111.20
2023-02-16T20:22:45.200Z,108.50
2023-02-16T20:24:46.862Z,91.00
2023-02-16T20:26:49.920Z,85.90
2023-02-16T20:28:52.318Z,87.55
2023-02-16T20:30:54.194Z,94.68
2023-02-16T20:32:56.020Z,93.22
2023-02-16T20:34:57.942Z,97.05
2023-02-16T20:36:59.720Z,96.88
2023-02-16T20:39:02.104Z,121.43
2023-02-16T20:41:04.224Z,129.02
2023-02-16T20:43:05.922Z,98.10
2023-02-16T20:45:08.114Z,88.18
2023-02-16T20:47:10.476Z,91.07
2023-02-16T20:49:13.520Z,89.40
2023-02-16T20:51:15.428Z,87.70
2023-02-16T20:53:16.927Z,88.93
2023-02-16T20:55:18.537Z,80.05
2023-02-16T20:57:26.725Z,82.57
2023-02-16T20:59:28.900Z,84.18
2023-02-16T21:01:40.128Z,78.93
2023-02-16T21:03:41.721Z,71.35
2023-02-16T21:05:43.462Z,61.88
2023-02-16T21:07:45.583Z,60.55
2023-02-16T21:09:47.101Z,63.83
2023-02-16T21:11:48.640Z,62.08
2023-02-16T21:13:50.174Z,70.38
2023-02-16T21:15:52.655Z,70.00
2023-02-16T21:17:54.227Z,72.35
2023-02-16T21:19:55.829Z,71.32
2023-02-16T21:21:57.329Z,76.78
2023-02-16T21:23:58.922Z,73.85
2023-02-16T21:26:02.241Z,67.20
2023-02-16T21:28:04.143Z,80.60
2023-02-16T21:30:06.409Z,76.68
2023-02-16T21:32:08.236Z,69.10
2023-02-16T21:34:09.801Z,60.08
2023-02-16T21:36:14.631Z,64.95
2023-02-16T21:38:17.755Z,63.20
2023-02-16T21:40:37.794Z,64.20
2023-02-16T21:42:39.289Z,63.08
2023-02-16T21:44:43.728Z,63.05
2023-02-16T21:46:47.336Z,69.40
2023-02-16T21:48:50.335Z,77.03
2023-02-16T21:50:52.125Z,90.53
2023-02-16T21:52:54.431Z,100.22
2023-02-16T21:55:14.359Z,100.93
2023-02-16T21:57:16.103Z,106.13
2023-02-16T21:59:19.387Z,109.47
2023-02-16T22:01:26.171Z,94.88
2023-02-16T22:03:28.301Z,91.38
2023-02-16T22:05:30.312Z,93.78
2023-02-16T22:07:33.455Z,82.38
2023-02-16T22:09:35.112Z,83.07
2023-02-16T22:11:37.029Z,66.03
2023-02-16T22:13:39.574Z,55.88
2023-02-16T22:15:41.211Z,58.42
2023-02-16T22:17:42.751Z,55.92
2023-02-16T22:19:44.269Z,65.28
2023-02-16T22:21:47.336Z,73.05
2023-02-16T22:23:48.951Z,77.82
2023-02-16T22:25:50.444Z,77.47
2023-02-16T22:27:52.263Z,67.47
2023-02-16T22:29:53.987Z,68.97
2023-02-16T22:31:55.588Z,68.50
2023-02-16T22:34:01.823Z,66.70
2023-02-16T22:36:09.494Z,64.65
2023-02-16T22:38:11.044Z,61.17
2023-02-16T22:40:12.696Z,60.97
2023-02-16T22:42:14.189Z,60.67
2023-02-16T22:44:15.818Z,61.38
2023-02-16T22:46:17.684Z,64.28
2023-02-16T22:48:19.257Z,74.47
2023-02-16T22:50:21.052Z,78.97
2023-02-16T22:52:22.697Z,99.65
2023-02-16T22:54:24.847Z,101.10
2023-02-16T22:56:27.070Z,89.03
2023-02-16T22:58:29.387Z,78.45
2023-02-16T23:00:31.029Z,72.18
2023-02-16T23:02:32.575Z,74.47
2023-02-16T23:04:34.127Z,86.13
2023-02-16T23:06:37.105Z,97.28
2023-02-16T23:08:38.630Z,101.68
2023-02-16T23:10:41.107Z,100.10
2023-02-16T23:12:42.583Z,92.88
2023-02-16T23:14:44.252Z,86.47
2023-02-16T23:16:47.841Z,86.63
2023-02-16T23:18:50.199Z,78.60
2023-02-16T23:20:51.763Z,79.57
2023-02-16T23:22:53.294Z,74.80
2023-02-16T23:25:14.864Z,67.07
2023-02-16T23:27:16.411Z,69.07
2023-02-16T23:29:18.189Z,77.18
2023-02-16T23:31:20.820Z,88.47
2023-02-16T23:33:22.791Z,98.72
2023-02-16T23:35:24.336Z,99.40
2023-02-16T23:37:29.801Z,96.30
2023-02-16T23:39:31.290Z,84.72
2023-02-16T23:41:33.186Z,86.43
2023-02-16T23:43:34.998Z,80.57
2023-02-16T23:45:36.990Z,81.68
2023-02-16T23:47:38.563Z,91.75
2023-02-16T23:49:40.090Z,99.78
2023-02-16T23:51:41.590Z,90.03
2023-02-16T23:53:44.266Z,79.38
2023-02-16T23:55:45.966Z,84.15
2023-02-16T23:57:47.512Z,87.22
2023-02-16T23:59:49.028Z,88.20
